In Rescue
 
Open Full Screen Window  High Contrast Mode
Wind Gusting 00 knots
05
March 20, 2019 8:13 PM CDT
Weather Information
Wind Direction
  340 °
Wind Speed
  05 kt (6 mph)
Wind Gust
  00 kt (0 mph)
Altimeter
29.99 in
Visibility
10 SM
Temperature
01° C
34° F
Dewpoint
-03° C
27° F
Humidity
75%
1hr Rain Fall
00.00 in.
24hr Rain Fall
00.01 in.
Sky Condition
Overcast @ 3,300 ft
VFR

METAR KCKC 210113Z AUTO 34005KT 10SM OVC033 01/M03 A2999 RMK AO2

FAA Disclaimer: The data displayed is for advisory purposes only and is not to be used for flight planning or operations.